Brisbin, PA (16620)

6:05 PM EST on February 09, 2016 (GMT -0500)
The Garden | | Change Station
CLOSE
Current Station
Personal Weather Station
Location: Houtzdale, PA
Elevation: 1578 ft
Nearby Weather Stations

Elev 1578 ft 40.79 °N, 78.37 °W | Updated 4 seconds ago

Overcast
Overcast
28.0 °F
Feels Like 28 °F
N
0.9
Wind Variable Wind from West
Gusts 2.5 mph

Today
High -- | Low -- °F
--% Chance of Precip.
Yesterday
High -- | Low -- °F
Precip. -- in
Pressure 29.60 in
Visibility 10.0 miles
Clouds Overcast 3300 ft
Windchill 28 °F
Dew Point 20 °F
Humidity 72%
Rainfall 0.02 in
Snow Depth Not available.
7:15 AM 5:40 PM
New Moon, 2% visible
METAR KFIG 092254Z AUTO 23007KT 10SM OVC033 M02/M03 A2955 RMK AO2 UPE10 SLP021 P0000 T10171033
Pressure 29.60 in
Visibility 10.0 miles
Clouds Overcast 3300 ft
Windchill 28 °F
Dew Point 20 °F
Humidity 72%
Rainfall 0.02 in
Snow Depth Not available.
7:15 AM 5:40 PM
New Moon, 2% visible
METAR KFIG 092254Z AUTO 23007KT 10SM OVC033 M02/M03 A2955 RMK AO2 UPE10 SLP021 P0000 T10171033
Winter Storm Nacio, the third winter storm in five days to affect the Northeast, is bringing pockets of locally heavy snow to parts of the Ohio Valley, Appalachians and mid-Atlantic states Tuesday. Winter storm warnings are posted for parts of southern Pennsylvania, southern Ohio and the higher peaks of the Appalachians. Winter weather advisories, generally for lighter snow accumulations, stretch from northeast Alabama and far north Georgia to southern Connecticut and Long Island.

10-Day Weather Forecast

Almanac

Astronomy

Feb. 09, 2016 Rise Set
Actual Time
Civil Twilight
Nautical Twilight
Astronomical Twilight
Moon
Length of Visible Light
Length of Day
Tomorrow will be .
, % of the Moon is Illuminated

Today's Extremes

State Highs State Lows

Community

WunderPhotos

Upload Photos

1,891,728 photos uploaded!

WunderBlog® & News

Nearby

Air Quality

  Air Quality AQ Index Pollutant
Not available.

Snow Depth

Station Depth Elevation

Earthquake Activity

City Distance Mag. Time & Date
Minimum magnitude displayed is 2.5.

Coastal Water Temperatures

Place Temperature

Stations

Nearby Weather Stations

Station Location Temp. Windchill Dew Point Humidity Wind Precip. Elev Updated Type
                   

Watches & Warnings

There are currently no watches in effect.